createdAt,value
2019-03-30T00:00:05.729Z,0
2019-03-30T00:01:05.716Z,0
2019-03-30T00:02:05.742Z,0
2019-03-30T00:03:05.683Z,0
2019-03-30T00:04:05.682Z,0
2019-03-30T00:05:05.672Z,0
2019-03-30T00:06:05.438Z,0
2019-03-30T00:07:05.665Z,0
2019-03-30T00:08:05.636Z,0
2019-03-30T00:09:05.613Z,0
2019-03-30T00:10:05.604Z,0
2019-03-30T00:11:05.623Z,0
2019-03-30T00:12:05.746Z,0
2019-03-30T00:13:05.584Z,0
2019-03-30T00:14:05.526Z,0
2019-03-30T00:15:05.554Z,0
2019-03-30T00:16:05.499Z,0
2019-03-30T00:17:05.524Z,0
2019-03-30T00:18:05.475Z,0
2019-03-30T00:19:05.513Z,0
2019-03-30T00:20:05.479Z,0
2019-03-30T00:21:05.459Z,0
2019-03-30T00:22:05.421Z,0
2019-03-30T00:23:05.408Z,0
2019-03-30T00:24:05.416Z,0
2019-03-30T00:25:05.414Z,0
2019-03-30T00:26:05.367Z,0
2019-03-30T00:27:05.390Z,0
2019-03-30T00:28:05.356Z,0
2019-03-30T00:29:05.376Z,0
2019-03-30T00:30:05.310Z,0
2019-03-30T00:31:05.346Z,0
2019-03-30T00:32:05.282Z,0
2019-03-30T00:33:05.306Z,0
2019-03-30T00:34:05.254Z,0
2019-03-30T00:35:05.285Z,0
2019-03-30T00:36:05.254Z,0
2019-03-30T00:37:05.246Z,0
2019-03-30T00:38:05.197Z,0
2019-03-30T00:39:05.188Z,0
2019-03-30T00:40:05.269Z,0
2019-03-30T00:41:05.198Z,0
2019-03-30T00:42:05.193Z,0
2019-03-30T00:43:05.139Z,0
2019-03-30T00:44:05.148Z,0
2019-03-30T00:45:05.105Z,0
2019-03-30T00:46:05.163Z,0
2019-03-30T00:47:05.082Z,0
2019-03-30T00:48:05.115Z,0
2019-03-30T00:49:05.063Z,0
2019-03-30T00:50:05.083Z,0
2019-03-30T00:51:05.033Z,0
2019-03-30T00:52:05.038Z,0
2019-03-30T00:53:05.026Z,0
2019-03-30T00:54:04.980Z,0
2019-03-30T00:55:05.125Z,0
2019-03-30T00:56:04.979Z,0
2019-03-30T00:57:04.975Z,0
2019-03-30T00:58:04.972Z,0
2019-03-30T00:59:04.923Z,0
2019-03-30T01:00:05.121Z,0
2019-03-30T01:01:04.883Z,0
2019-03-30T01:02:04.947Z,0
2019-03-30T01:03:04.859Z,0
2019-03-30T01:04:04.893Z,0
2019-03-30T01:05:04.601Z,0
2019-03-30T01:06:05.530Z,0
2019-03-30T01:07:04.804Z,0
2019-03-30T01:08:04.806Z,0
2019-03-30T01:09:04.998Z,0
2019-03-30T01:10:04.995Z,0
2019-03-30T01:11:04.799Z,0
2019-03-30T01:12:04.751Z,0
2019-03-30T01:13:04.737Z,0
2019-03-30T01:14:04.708Z,0
2019-03-30T01:15:04.734Z,0
2019-03-30T01:16:04.701Z,0
2019-03-30T01:17:04.687Z,0
2019-03-30T01:18:04.717Z,0
2019-03-30T01:19:04.647Z,0
2019-03-30T01:20:10.527Z,0
2019-03-30T01:21:04.623Z,0
2019-03-30T01:22:04.648Z,0
2019-03-30T01:23:04.596Z,0
2019-03-30T01:24:04.593Z,0
2019-03-30T01:25:04.568Z,0
2019-03-30T01:26:04.594Z,0
2019-03-30T01:27:04.568Z,0
2019-03-30T01:28:04.530Z,0
2019-03-30T01:35:04.570Z,0
2019-03-30T01:36:04.466Z,0
2019-03-30T01:44:04.321Z,0
2019-03-30T01:45:04.302Z,0
2019-03-30T02:01:08.082Z,0
2019-03-30T02:02:06.609Z,0
2019-03-30T02:03:04.032Z,0
2019-03-30T02:04:04.142Z,0
2019-03-30T02:05:04.034Z,0
2019-03-30T02:06:04.030Z,0
2019-03-30T02:07:03.982Z,0
2019-03-30T02:08:03.963Z,0
2019-03-30T02:09:03.980Z,0
2019-03-30T02:10:04.057Z,0
2019-03-30T02:11:03.919Z,0
2019-03-30T02:12:03.949Z,0
2019-03-30T02:13:03.918Z,0
2019-03-30T02:14:03.918Z,0
2019-03-30T02:15:03.875Z,0
2019-03-30T02:16:03.887Z,0
2019-03-30T02:17:03.586Z,0
2019-03-30T02:18:03.906Z,0
2019-03-30T02:19:03.801Z,0
2019-03-30T02:20:03.839Z,0
2019-03-30T02:21:03.801Z,0
2019-03-30T02:22:03.821Z,0
2019-03-30T02:23:03.750Z,0
2019-03-30T02:24:03.734Z,0
2019-03-30T02:25:03.749Z,0
2019-03-30T02:26:03.487Z,0
2019-03-30T02:27:03.747Z,0
2019-03-30T02:28:06.707Z,0
2019-03-30T02:29:03.701Z,0
2019-03-30T02:30:03.700Z,0
2019-03-30T02:31:03.715Z,0
2019-03-30T02:32:03.651Z,0
2019-03-30T02:33:03.659Z,0
2019-03-30T02:34:03.371Z,0
2019-03-30T02:35:03.641Z,0
2019-03-30T02:36:03.572Z,0
2019-03-30T02:37:03.578Z,0
2019-03-30T02:38:03.575Z,0
2019-03-30T02:39:03.539Z,0
2019-03-30T02:40:03.271Z,0
2019-03-30T02:41:03.587Z,0
2019-03-30T02:42:03.516Z,0
2019-03-30T02:43:03.526Z,0
2019-03-30T02:44:03.601Z,0
2019-03-30T02:45:03.474Z,0
2019-03-30T02:46:03.470Z,0
2019-03-30T02:47:03.465Z,0
2019-03-30T02:48:03.423Z,0
2019-03-30T02:49:03.434Z,0
2019-03-30T02:50:03.387Z,0
2019-03-30T02:51:03.405Z,0
2019-03-30T02:52:03.357Z,0
2019-03-30T02:53:03.374Z,0
2019-03-30T02:54:03.359Z,0
2019-03-30T02:55:03.344Z,0
2019-03-30T02:56:03.339Z,0
2019-03-30T02:57:03.293Z,0
2019-03-30T02:58:03.275Z,0
2019-03-30T02:59:03.241Z,0
2019-03-30T03:00:03.271Z,0
2019-03-30T03:01:03.242Z,0
2019-03-30T03:02:03.236Z,0
2019-03-30T03:03:03.256Z,0
2019-03-30T03:04:03.202Z,0
2019-03-30T03:05:03.215Z,0
2019-03-30T03:06:03.180Z,0
2019-03-30T03:07:03.173Z,0
2019-03-30T03:08:03.112Z,0
2019-03-30T03:09:03.122Z,0
2019-03-30T03:10:03.102Z,0
2019-03-30T03:11:03.121Z,0
2019-03-30T03:12:03.107Z,0
2019-03-30T03:13:03.065Z,0
2019-03-30T03:14:02.818Z,0
2019-03-30T03:15:03.042Z,0
2019-03-30T03:16:03.039Z,0
2019-03-30T03:17:03.047Z,0
2019-03-30T03:18:03.080Z,0
2019-03-30T03:19:02.957Z,0
2019-03-30T03:20:03.014Z,0
2019-03-30T03:21:15.235Z,0
2019-03-30T03:22:02.949Z,0
2019-03-30T03:23:02.908Z,0
2019-03-30T03:24:02.931Z,0
2019-03-30T03:25:03.001Z,0
2019-03-30T03:26:02.882Z,0
2019-03-30T03:27:02.871Z,0
2019-03-30T03:28:02.874Z,0
2019-03-30T03:29:02.868Z,0
2019-03-30T03:30:03.340Z,0
2019-03-30T03:31:02.837Z,0
2019-03-30T03:32:02.864Z,0
2019-03-30T03:33:02.906Z,0
2019-03-30T03:34:02.814Z,0
2019-03-30T03:35:03.120Z,0
2019-03-30T03:36:02.757Z,0
2019-03-30T03:37:02.714Z,0
2019-03-30T03:38:02.719Z,0
2019-03-30T03:39:02.716Z,0
2019-03-30T03:40:02.974Z,0
2019-03-30T03:41:02.710Z,0
2019-03-30T03:42:02.664Z,0
2019-03-30T03:43:02.612Z,0
2019-03-30T03:44:02.590Z,0
2019-03-30T03:45:03.039Z,0
2019-03-30T03:46:02.609Z,0
2019-03-30T03:47:02.610Z,0
2019-03-30T03:48:02.571Z,0
2019-03-30T03:49:02.550Z,0
2019-03-30T03:50:02.928Z,0
2019-03-30T03:51:02.541Z,0
2019-03-30T03:52:02.499Z,0
2019-03-30T03:53:02.491Z,0
2019-03-30T03:54:02.552Z,0
2019-03-30T03:55:02.891Z,0
2019-03-30T03:56:02.496Z,0
2019-03-30T03:57:02.434Z,0
2019-03-30T03:58:02.424Z,0
2019-03-30T03:59:02.391Z,0
2019-03-30T04:00:02.370Z,0
2019-03-30T04:01:02.391Z,0
2019-03-30T04:02:02.412Z,0
2019-03-30T04:03:02.387Z,0
2019-03-30T04:04:02.300Z,0
2019-03-30T04:05:02.091Z,0
2019-03-30T04:06:02.323Z,0
2019-03-30T04:07:02.334Z,0
2019-03-30T04:08:02.286Z,4
2019-03-30T04:09:02.297Z,0
2019-03-30T04:10:02.245Z,0
2019-03-30T04:11:02.260Z,0
2019-03-30T04:12:02.279Z,4
2019-03-30T04:13:06.717Z,0
2019-03-30T04:14:02.169Z,4
2019-03-30T04:15:02.202Z,4
2019-03-30T04:16:02.179Z,4
2019-03-30T04:17:02.135Z,4
2019-03-30T04:18:02.121Z,8
2019-03-30T04:19:02.137Z,8
2019-03-30T04:20:02.091Z,8
2019-03-30T04:21:02.116Z,8
2019-03-30T04:22:02.047Z,12
2019-03-30T04:23:02.081Z,12
2019-03-30T04:24:02.041Z,16
2019-03-30T04:25:02.051Z,16
2019-03-30T04:26:02.000Z,20
2019-03-30T04:27:02.023Z,28
2019-03-30T04:28:01.951Z,32
2019-03-30T04:29:01.960Z,36
2019-03-30T04:30:01.969Z,44
2019-03-30T04:31:02.035Z,52
2019-03-30T04:32:01.976Z,64
2019-03-30T04:33:01.924Z,68
2019-03-30T04:34:01.891Z,84
2019-03-30T04:35:01.894Z,92
2019-03-30T04:36:01.882Z,108
2019-03-30T04:37:01.840Z,120
2019-03-30T04:38:01.859Z,132
2019-03-30T04:39:01.806Z,140
2019-03-30T04:40:01.825Z,156
2019-03-30T04:41:01.765Z,172
2019-03-30T04:42:01.789Z,192
2019-03-30T04:43:01.738Z,208
2019-03-30T04:44:01.761Z,228
2019-03-30T04:45:01.740Z,252
2019-03-30T04:46:01.719Z,272
2019-03-30T04:47:01.720Z,296
2019-03-30T04:48:01.722Z,324
2019-03-30T04:49:01.835Z,356
2019-03-30T04:50:01.650Z,388
2019-03-30T04:51:01.625Z,428
2019-03-30T04:52:05.028Z,476
2019-03-30T04:53:01.602Z,524
2019-03-30T04:54:01.613Z,576
2019-03-30T04:55:01.559Z,628
2019-03-30T04:56:01.583Z,680
2019-03-30T04:57:01.528Z,740
2019-03-30T04:58:05.094Z,808
2019-03-30T04:59:01.496Z,872
2019-03-30T05:00:01.527Z,944
2019-03-30T05:01:01.262Z,1028
2019-03-30T05:02:01.490Z,1112
2019-03-30T05:03:01.444Z,1192
2019-03-30T05:04:01.428Z,1256
2019-03-30T05:05:01.454Z,1316
2019-03-30T05:06:01.436Z,1388
2019-03-30T05:07:01.460Z,1456
2019-03-30T05:08:01.380Z,1536
2019-03-30T05:09:01.391Z,1620
2019-03-30T05:10:01.383Z,1704
2019-03-30T05:11:01.326Z,1792
2019-03-30T05:12:01.360Z,1888
2019-03-30T05:13:01.328Z,1976
2019-03-30T05:14:01.612Z,2064
2019-03-30T05:15:01.269Z,2156
2019-03-30T05:16:01.301Z,2248
2019-03-30T05:17:01.265Z,2356
2019-03-30T05:18:01.269Z,2452
2019-03-30T05:19:01.209Z,2536
2019-03-30T05:20:01.212Z,2624
2019-03-30T05:21:01.218Z,2732
2019-03-30T05:22:19.074Z,2904
2019-03-30T05:23:00.915Z,3012
2019-03-30T05:24:00.934Z,3204
2019-03-30T05:25:00.938Z,3436
2019-03-30T05:26:01.159Z,3652
2019-03-30T05:27:01.097Z,3796
2019-03-30T05:28:01.130Z,4048
2019-03-30T05:29:01.066Z,4392
2019-03-30T05:30:01.092Z,4584
2019-03-30T05:31:01.046Z,4848
2019-03-30T05:32:01.085Z,5048
2019-03-30T05:33:12.806Z,4972
2019-03-30T05:34:01.041Z,5052
2019-03-30T05:35:01.008Z,5176
2019-03-30T05:36:01.021Z,5452
2019-03-30T05:37:00.988Z,5520
2019-03-30T05:38:03.935Z,5584
2019-03-30T05:39:00.699Z,5708
2019-03-30T05:40:00.967Z,5832
2019-03-30T05:41:00.934Z,5680
2019-03-30T05:42:00.946Z,5832
2019-03-30T05:43:00.891Z,6240
2019-03-30T05:44:00.920Z,6556
2019-03-30T05:45:02.820Z,6304
2019-03-30T05:46:00.889Z,6644
2019-03-30T05:47:00.846Z,6172
2019-03-30T05:48:00.900Z,6632
2019-03-30T05:49:00.847Z,6844
2019-03-30T05:50:00.850Z,7020
2019-03-30T05:51:00.809Z,7144
2019-03-30T05:52:00.798Z,7176
2019-03-30T05:53:00.810Z,7556
2019-03-30T05:54:00.796Z,7832
2019-03-30T05:55:00.805Z,7956
2019-03-30T05:56:00.760Z,8260
2019-03-30T05:57:00.770Z,8588
2019-03-30T05:58:00.723Z,9072
2019-03-30T05:59:00.759Z,9188
2019-03-30T06:00:03.161Z,9228
2019-03-30T06:01:00.732Z,9116
2019-03-30T06:02:00.719Z,9028
2019-03-30T06:03:00.688Z,10032
2019-03-30T06:04:00.724Z,10576
2019-03-30T06:05:03.228Z,10244
2019-03-30T06:06:00.676Z,10160
2019-03-30T06:07:00.637Z,9716
2019-03-30T06:08:00.642Z,10472
2019-03-30T06:09:00.666Z,10032
2019-03-30T06:10:00.647Z,10076
2019-03-30T06:11:00.654Z,11336
2019-03-30T06:12:00.601Z,11372
2019-03-30T06:13:00.622Z,11648
2019-03-30T06:14:00.592Z,12284
2019-03-30T06:15:00.627Z,12536
2019-03-30T06:16:00.565Z,13192
2019-03-30T06:17:00.605Z,13696
2019-03-30T06:18:00.322Z,13632
2019-03-30T06:19:00.596Z,14208
2019-03-30T06:20:00.532Z,13952
2019-03-30T06:21:00.549Z,14944
2019-03-30T06:22:00.546Z,15872
2019-03-30T06:23:00.561Z,16896
2019-03-30T06:24:00.550Z,16928
2019-03-30T06:25:00.527Z,17056
2019-03-30T06:26:00.512Z,16864
2019-03-30T06:27:00.536Z,17312
2019-03-30T06:28:00.485Z,15680
2019-03-30T06:29:00.500Z,18272
2019-03-30T06:30:00.517Z,18272
2019-03-30T06:31:00.513Z,17536
2019-03-30T06:32:00.487Z,19296
2019-03-30T06:33:00.517Z,20256
2019-03-30T06:34:00.463Z,20640
2019-03-30T06:35:00.500Z,20448
2019-03-30T06:36:00.446Z,21280
2019-03-30T06:37:00.447Z,20384
2019-03-30T06:38:00.457Z,19936
2019-03-30T06:39:00.479Z,17568
2019-03-30T06:40:00.467Z,17280
2019-03-30T06:41:00.435Z,19360
2019-03-30T06:42:00.426Z,20288
2019-03-30T06:43:00.419Z,19808
2019-03-30T06:44:00.452Z,19936
2019-03-30T06:45:00.432Z,20128
2019-03-30T06:46:00.447Z,21120
2019-03-30T06:47:00.395Z,22560
2019-03-30T06:48:00.439Z,22304
2019-03-30T06:49:00.151Z,20960
2019-03-30T06:50:00.417Z,20416
2019-03-30T06:51:00.387Z,19488
2019-03-30T06:52:00.422Z,20256
2019-03-30T06:53:05.544Z,21920
2019-03-30T06:54:00.396Z,20736
2019-03-30T06:55:00.490Z,19872
2019-03-30T06:56:00.426Z,21184
2019-03-30T06:57:00.388Z,22272
2019-03-30T06:58:00.466Z,22784
2019-03-30T06:59:00.369Z,25184
2019-03-30T07:00:00.421Z,24128
2019-03-30T07:01:00.382Z,21312
2019-03-30T07:02:00.400Z,24832
2019-03-30T07:03:00.356Z,24544
2019-03-30T07:04:00.401Z,24480
2019-03-30T07:05:00.393Z,23648
2019-03-30T07:06:00.363Z,23488
2019-03-30T07:07:00.397Z,25632
2019-03-30T07:08:00.341Z,25120
2019-03-30T07:09:00.360Z,24512
2019-03-30T07:10:00.475Z,23040
2019-03-30T07:11:00.387Z,23616
2019-03-30T07:12:00.378Z,27392
2019-03-30T07:13:00.354Z,27968
2019-03-30T07:14:00.350Z,30400
2019-03-30T07:15:00.414Z,30688
2019-03-30T07:16:00.384Z,29728
2019-03-30T07:17:04.085Z,30016
2019-03-30T07:18:00.344Z,31296
2019-03-30T07:19:00.381Z,32032
2019-03-30T07:20:00.478Z,31264
2019-03-30T07:21:00.376Z,32416
2019-03-30T07:22:00.351Z,34688
2019-03-30T07:23:13.761Z,36128
2019-03-30T07:24:00.328Z,36608
2019-03-30T07:25:00.425Z,39488
2019-03-30T07:26:00.343Z,43168
2019-03-30T07:27:00.375Z,43520
2019-03-30T07:28:00.390Z,45088
2019-03-30T07:29:00.369Z,44992
2019-03-30T07:30:00.416Z,46912
2019-03-30T07:31:00.333Z,47008
2019-03-30T07:32:00.385Z,43616
2019-03-30T07:33:00.366Z,42976
2019-03-30T07:34:00.390Z,46432
2019-03-30T07:35:00.415Z,47648
2019-03-30T07:36:00.393Z,48832
2019-03-30T07:37:00.353Z,47296
2019-03-30T07:38:00.386Z,37696
2019-03-30T07:39:00.356Z,45024
2019-03-30T07:40:00.409Z,47072
2019-03-30T07:41:00.399Z,47872
2019-03-30T07:42:00.405Z,48128
2019-03-30T07:43:00.372Z,46208
2019-03-30T07:44:00.429Z,45888
2019-03-30T07:45:00.395Z,42976
2019-03-30T07:46:00.413Z,36288
2019-03-30T07:47:00.389Z,37440
2019-03-30T07:48:00.437Z,35744
2019-03-30T07:49:00.587Z,32224
2019-03-30T07:50:00.443Z,31904
2019-03-30T07:51:00.417Z,33600
2019-03-30T07:52:00.476Z,35072
2019-03-30T07:53:00.408Z,33952
2019-03-30T07:54:00.442Z,33632
2019-03-30T07:55:00.440Z,38112
2019-03-30T07:56:14.860Z,40736
2019-03-30T07:57:21.868Z,39424
2019-03-30T07:58:00.624Z,38912
2019-03-30T07:59:00.437Z,37856
2019-03-30T08:00:00.593Z,36448
2019-03-30T08:01:00.461Z,39232
2019-03-30T08:02:00.505Z,41280
2019-03-30T08:03:00.489Z,36640
2019-03-30T08:04:00.458Z,34656
2019-03-30T08:05:00.486Z,38240
2019-03-30T08:06:01.622Z,36672
2019-03-30T08:07:00.502Z,32352
2019-03-30T08:08:00.474Z,33856
2019-03-30T08:09:00.492Z,38272
2019-03-30T08:10:00.380Z,38400
2019-03-30T08:11:00.480Z,37504
2019-03-30T08:12:00.523Z,41504
2019-03-30T08:13:00.552Z,42816
2019-03-30T08:14:00.505Z,40704
2019-03-30T08:15:00.478Z,37472
2019-03-30T08:16:00.492Z,42016
2019-03-30T08:17:00.513Z,37216
2019-03-30T08:18:00.521Z,17436
2019-03-30T08:19:00.611Z,10524
2019-03-30T08:20:00.497Z,10224
2019-03-30T08:21:00.522Z,10072
2019-03-30T08:22:00.497Z,9832
2019-03-30T08:23:00.543Z,10072
2019-03-30T08:24:00.500Z,9996
2019-03-30T08:25:00.540Z,10032
2019-03-30T08:26:00.508Z,10048
2019-03-30T08:27:00.548Z,10080
2019-03-30T08:28:00.514Z,10108
2019-03-30T08:29:00.521Z,10312
2019-03-30T08:30:00.512Z,10380
2019-03-30T08:31:00.539Z,10224
2019-03-30T08:32:00.543Z,10280
2019-03-30T08:33:00.506Z,10396
2019-03-30T08:34:00.511Z,10340
2019-03-30T08:35:00.534Z,10332
2019-03-30T08:36:00.487Z,10148
2019-03-30T08:37:04.033Z,10248
2019-03-30T08:38:00.473Z,10444
2019-03-30T08:39:00.519Z,10744
2019-03-30T08:40:00.482Z,10664
2019-03-30T08:41:00.515Z,10716
2019-03-30T08:42:00.486Z,10856
2019-03-30T08:43:00.512Z,10824
2019-03-30T08:44:00.220Z,10780
2019-03-30T08:45:00.477Z,10748
2019-03-30T08:46:00.465Z,10652
2019-03-30T08:47:00.498Z,10792
2019-03-30T08:48:00.448Z,10792
2019-03-30T08:49:00.468Z,10840
2019-03-30T08:50:00.470Z,11048
2019-03-30T08:51:00.477Z,10700
2019-03-30T08:52:00.458Z,10640
2019-03-30T08:53:00.455Z,10520
2019-03-30T08:54:02.035Z,10292
2019-03-30T08:55:00.462Z,10528
2019-03-30T08:56:00.423Z,10660
2019-03-30T08:57:00.458Z,10612
2019-03-30T08:58:00.418Z,10396
2019-03-30T08:59:00.447Z,10208
2019-03-30T09:00:00.412Z,10220
2019-03-30T09:01:00.421Z,10116
2019-03-30T09:02:00.421Z,10048
2019-03-30T09:03:00.388Z,9892
2019-03-30T09:04:00.389Z,9984
2019-03-30T09:05:00.483Z,9820
2019-03-30T09:06:00.403Z,9704
2019-03-30T09:07:00.409Z,9556
2019-03-30T09:08:00.375Z,9700
2019-03-30T09:09:00.405Z,9796
2019-03-30T09:10:00.616Z,9748
2019-03-30T09:11:00.393Z,9592
2019-03-30T09:12:00.345Z,9376
2019-03-30T09:13:00.382Z,9396
2019-03-30T09:14:00.350Z,9560
2019-03-30T09:15:00.458Z,9716
2019-03-30T09:16:00.318Z,9940
2019-03-30T09:17:00.351Z,10072
2019-03-30T09:18:00.327Z,10172
2019-03-30T09:19:00.352Z,10308
2019-03-30T09:20:00.454Z,10480
2019-03-30T09:21:00.323Z,10560
2019-03-30T09:22:00.313Z,10840
2019-03-30T09:23:00.302Z,10564
2019-03-30T09:24:14.152Z,10528
2019-03-30T09:25:00.521Z,10460
2019-03-30T09:26:00.285Z,10492
2019-03-30T09:27:00.315Z,10468
2019-03-30T09:28:00.274Z,10564
2019-03-30T09:29:00.318Z,10528
2019-03-30T09:30:00.393Z,10556
2019-03-30T09:31:00.299Z,10664
2019-03-30T09:32:13.507Z,10796
2019-03-30T09:33:00.266Z,10916
2019-03-30T09:34:00.252Z,10912
2019-03-30T09:35:00.351Z,11096
2019-03-30T09:36:00.270Z,11440
2019-03-30T09:37:00.609Z,11608
2019-03-30T09:38:00.243Z,11240
2019-03-30T09:39:00.212Z,11572
2019-03-30T09:40:00.382Z,11860
2019-03-30T09:41:00.223Z,11968
2019-03-30T09:42:00.020Z,11724
2019-03-30T09:43:00.191Z,11676
2019-03-30T09:44:00.231Z,11560
2019-03-30T09:45:00.383Z,11448
2019-03-30T09:46:00.209Z,11276
2019-03-30T09:47:00.189Z,10856
2019-03-30T09:48:00.223Z,10404
2019-03-30T09:49:00.201Z,10008
2019-03-30T09:50:02.354Z,10232
2019-03-30T09:51:00.156Z,10004
2019-03-30T09:52:00.201Z,9872
2019-03-30T09:53:00.272Z,9900
2019-03-30T09:54:00.162Z,9656
2019-03-30T09:55:00.144Z,9648
2019-03-30T09:56:00.184Z,9800
2019-03-30T09:57:00.156Z,9748
2019-03-30T09:58:00.187Z,9936
2019-03-30T09:59:00.118Z,10104
2019-03-30T10:00:00.367Z,10064
2019-03-30T10:01:00.115Z,10064
2019-03-30T10:02:00.168Z,10112
2019-03-30T10:03:00.123Z,9996
2019-03-30T10:04:00.157Z,9796
2019-03-30T10:05:00.142Z,9980
2019-03-30T10:06:00.125Z,10084
2019-03-30T10:07:00.133Z,10320
2019-03-30T10:08:00.087Z,10420
2019-03-30T10:09:00.105Z,10408
2019-03-30T10:10:00.247Z,10236
2019-03-30T10:11:00.112Z,10424
2019-03-30T10:12:00.067Z,10540
2019-03-30T10:13:00.102Z,10464
2019-03-30T10:14:00.053Z,10656
2019-03-30T10:15:00.344Z,10928
2019-03-30T10:16:00.049Z,10716
2019-03-30T10:17:00.071Z,10428
2019-03-30T10:18:00.069Z,10260
2019-03-30T10:19:00.041Z,9996
2019-03-30T10:20:11.315Z,9612
2019-03-30T10:21:00.056Z,9552
2019-03-30T10:22:00.059Z,9372
2019-03-30T10:23:00.011Z,9168
2019-03-30T10:24:00.023Z,8976
2019-03-30T10:25:03.147Z,8952
2019-03-30T10:26:00.062Z,8748
2019-03-30T10:27:00.050Z,8256
2019-03-30T10:27:59.999Z,7956
2019-03-30T10:29:00.018Z,7832
2019-03-30T10:30:00.019Z,7520
2019-03-30T10:31:00.370Z,7432
2019-03-30T10:32:02.325Z,7340
2019-03-30T10:32:59.973Z,7244
2019-03-30T10:34:00.007Z,7200
2019-03-30T10:35:00.028Z,7128
2019-03-30T10:36:00.015Z,6868
2019-03-30T10:37:00.002Z,6800
2019-03-30T10:37:59.984Z,6908
2019-03-30T10:38:59.945Z,7056
2019-03-30T10:39:59.948Z,7212
2019-03-30T10:40:59.973Z,7460
2019-03-30T10:41:59.722Z,7628
2019-03-30T10:42:59.931Z,7636
2019-03-30T10:43:59.976Z,7544
2019-03-30T10:44:59.936Z,7592
2019-03-30T10:45:59.965Z,7692
2019-03-30T10:46:59.912Z,7700
2019-03-30T10:47:59.960Z,7596
2019-03-30T10:48:59.937Z,7572
2019-03-30T10:49:59.937Z,7720
2019-03-30T10:50:59.890Z,7932
2019-03-30T10:52:01.670Z,7892
2019-03-30T10:52:59.911Z,7688
2019-03-30T10:53:59.914Z,7564
2019-03-30T10:55:00.484Z,7428
2019-03-30T10:55:59.875Z,7076
2019-03-30T10:56:59.903Z,6824
2019-03-30T10:58:03.344Z,6584
2019-03-30T10:58:59.903Z,6428
2019-03-30T10:59:59.859Z,6284
2019-03-30T11:00:59.876Z,6232
2019-03-30T11:01:59.842Z,6248
2019-03-30T11:02:59.884Z,6080
2019-03-30T11:03:59.895Z,5948
2019-03-30T11:04:59.889Z,5908
2019-03-30T11:05:59.853Z,5884
2019-03-30T11:06:59.867Z,5864
2019-03-30T11:07:59.826Z,5836
2019-03-30T11:08:59.842Z,5784
2019-03-30T11:09:59.846Z,5768
2019-03-30T11:10:59.807Z,5752
2019-03-30T11:11:59.806Z,5728
2019-03-30T11:12:59.823Z,5632
2019-03-30T11:13:59.824Z,5740
2019-03-30T11:14:59.832Z,5800
2019-03-30T11:15:59.812Z,5808
2019-03-30T11:16:59.840Z,5784
2019-03-30T11:17:59.776Z,5756
2019-03-30T11:18:59.816Z,5688
2019-03-30T11:19:59.879Z,5608
2019-03-30T11:20:59.810Z,5640
2019-03-30T11:22:02.976Z,5600
2019-03-30T11:22:59.799Z,5540
2019-03-30T11:23:59.797Z,5576
2019-03-30T11:25:13.998Z,5600
2019-03-30T11:25:59.752Z,5588
2019-03-30T11:26:59.778Z,5544
2019-03-30T11:27:59.775Z,5524
2019-03-30T11:28:59.750Z,5536
2019-03-30T11:29:59.734Z,5524
2019-03-30T11:30:59.719Z,5516
2019-03-30T11:31:59.780Z,5480
2019-03-30T11:32:59.748Z,5440
2019-03-30T11:33:59.489Z,5384
2019-03-30T11:34:59.748Z,5372
2019-03-30T11:35:59.705Z,5344
2019-03-30T11:36:59.766Z,5276
2019-03-30T11:37:59.700Z,5196
2019-03-30T11:38:59.724Z,5144
2019-03-30T11:39:59.675Z,5168
2019-03-30T11:40:59.688Z,5164
2019-03-30T11:41:59.683Z,5164
2019-03-30T11:42:59.708Z,5164
2019-03-30T11:43:59.703Z,5188
2019-03-30T11:44:59.762Z,5196
2019-03-30T11:45:59.659Z,5188
2019-03-30T11:46:59.644Z,5216
2019-03-30T11:47:59.682Z,5208
2019-03-30T11:49:00.083Z,5192
2019-03-30T11:49:59.693Z,5144
2019-03-30T11:50:59.625Z,5128
2019-03-30T11:51:59.687Z,5080
2019-03-30T11:52:59.618Z,5024
2019-03-30T11:53:59.642Z,4984
2019-03-30T11:54:59.603Z,4976
2019-03-30T11:55:59.648Z,4992
2019-03-30T11:56:59.622Z,4972
2019-03-30T11:57:59.374Z,5000
2019-03-30T11:58:59.585Z,5040
2019-03-30T11:59:59.622Z,5068
2019-03-30T12:00:59.598Z,5064
2019-03-30T12:01:59.595Z,5008
2019-03-30T12:02:59.577Z,5008
2019-03-30T12:03:59.615Z,5004
2019-03-30T12:04:59.575Z,4984
2019-03-30T12:05:59.600Z,4984
2019-03-30T12:06:59.573Z,4996
2019-03-30T12:07:59.590Z,5000
2019-03-30T12:08:59.542Z,4988
2019-03-30T12:09:59.570Z,5008
2019-03-30T12:10:59.287Z,5016
2019-03-30T12:11:59.586Z,5044
2019-03-30T12:12:59.549Z,5072
2019-03-30T12:13:59.537Z,5096
2019-03-30T12:14:59.561Z,5056
2019-03-30T12:15:59.548Z,5040
2019-03-30T12:16:59.603Z,5028
2019-03-30T12:17:59.585Z,5056
2019-03-30T12:18:59.528Z,5060
2019-03-30T12:19:59.533Z,5056
2019-03-30T12:20:59.505Z,5060
2019-03-30T12:21:59.527Z,5060
2019-03-30T12:22:59.490Z,5056
2019-03-30T12:23:59.513Z,5016
2019-03-30T12:24:59.491Z,4980
2019-03-30T12:25:59.475Z,4940
2019-03-30T12:27:02.570Z,4868
2019-03-30T12:27:59.455Z,4896
2019-03-30T12:28:59.470Z,4904
2019-03-30T12:29:59.538Z,4904
2019-03-30T12:30:59.482Z,4892
2019-03-30T12:31:59.474Z,4860
2019-03-30T12:32:59.212Z,4836
2019-03-30T12:33:59.436Z,4820
2019-03-30T12:34:59.426Z,4808
2019-03-30T12:35:59.457Z,4792
2019-03-30T12:37:02.843Z,4764
2019-03-30T12:37:59.489Z,4760
2019-03-30T12:38:59.431Z,4720
2019-03-30T12:40:03.045Z,4696
2019-03-30T12:40:59.391Z,4688
2019-03-30T12:41:59.421Z,4688
2019-03-30T12:42:59.405Z,4676
2019-03-30T12:43:59.431Z,4660
2019-03-30T12:44:59.403Z,4664
2019-03-30T12:45:59.404Z,4688
2019-03-30T12:46:59.369Z,4700
2019-03-30T12:47:59.372Z,4688
2019-03-30T12:48:59.400Z,4676
2019-03-30T12:49:59.379Z,4636
2019-03-30T12:50:59.349Z,4644
2019-03-30T12:51:59.136Z,4628
2019-03-30T12:52:59.363Z,4604
2019-03-30T12:53:59.401Z,4592
2019-03-30T12:54:59.329Z,4584
2019-03-30T12:55:59.369Z,4584
2019-03-30T12:56:59.319Z,4580
2019-03-30T12:57:59.352Z,4572
2019-03-30T12:58:59.312Z,4532
2019-03-30T13:00:01.685Z,4492
2019-03-30T13:00:59.329Z,4480
2019-03-30T13:01:59.330Z,4476
2019-03-30T13:02:59.375Z,4476
2019-03-30T13:03:59.289Z,4476
2019-03-30T13:04:59.307Z,4468
2019-03-30T13:05:59.312Z,4452
2019-03-30T13:06:59.315Z,4440
2019-03-30T13:07:59.272Z,4416
2019-03-30T13:08:59.391Z,4412
2019-03-30T13:09:59.026Z,4404
2019-03-30T13:10:59.320Z,4404
2019-03-30T13:11:59.258Z,4416
2019-03-30T13:12:59.295Z,4428
2019-03-30T13:13:59.252Z,4436
2019-03-30T13:14:59.276Z,4444
2019-03-30T13:15:59.234Z,4448
2019-03-30T13:16:59.266Z,4444
2019-03-30T13:17:59.266Z,4444
2019-03-30T13:18:59.213Z,4432
2019-03-30T13:19:59.217Z,4448
2019-03-30T13:20:59.236Z,4444
2019-03-30T13:22:00.308Z,4448
2019-03-30T13:22:59.252Z,4444
2019-03-30T13:23:59.224Z,4428
2019-03-30T13:24:59.210Z,4444
2019-03-30T13:26:10.063Z,4460
2019-03-30T13:26:59.223Z,4472
2019-03-30T13:28:00.592Z,4492
2019-03-30T13:28:59.218Z,4508
2019-03-30T13:29:59.185Z,4512
2019-03-30T13:30:59.221Z,4516
2019-03-30T13:31:59.169Z,4524
2019-03-30T13:33:00.461Z,4544
2019-03-30T13:33:59.160Z,4552
2019-03-30T13:34:59.189Z,4560
2019-03-30T13:35:59.186Z,4552
2019-03-30T13:36:59.150Z,4540
2019-03-30T13:37:59.147Z,4528
2019-03-30T13:38:59.123Z,4532
2019-03-30T13:39:59.170Z,4544
2019-03-30T13:40:58.894Z,4540
2019-03-30T13:41:59.131Z,4528
2019-03-30T13:42:59.161Z,4516
2019-03-30T13:43:59.110Z,4516
2019-03-30T13:44:59.147Z,4532
2019-03-30T13:45:59.103Z,4544
2019-03-30T13:46:59.138Z,4552
2019-03-30T13:47:59.084Z,4576
2019-03-30T13:48:59.104Z,4600
2019-03-30T13:49:59.095Z,4604
2019-03-30T13:50:59.122Z,4588
2019-03-30T13:51:59.155Z,4584
2019-03-30T13:52:59.081Z,4588
2019-03-30T13:53:59.068Z,4572
2019-03-30T13:54:59.058Z,4572
2019-03-30T13:55:59.096Z,4568
2019-03-30T13:56:59.076Z,4564
2019-03-30T13:57:59.086Z,4552
2019-03-30T13:58:59.043Z,4552
2019-03-30T13:59:59.068Z,4560
2019-03-30T14:00:59.033Z,4580
2019-03-30T14:01:59.055Z,4596
2019-03-30T14:02:59.018Z,4612
2019-03-30T14:03:59.266Z,4608